createdAt,value
2018-05-02T08:29:36.072Z,3.20
2018-05-02T08:30:36.679Z,4.50
2018-05-02T08:31:37.276Z,6.70
2018-05-02T08:32:37.900Z,4.90
2018-05-02T08:33:38.456Z,4.70
2018-05-02T08:34:39.087Z,5.30
2018-05-02T08:35:39.688Z,6.00
2018-05-02T08:37:40.559Z,7.80
2018-05-02T08:38:41.216Z,7.50
2018-05-02T08:39:42.487Z,4.80
2018-05-02T08:40:43.075Z,6.10
2018-05-02T08:41:43.688Z,6.30
2018-05-02T08:42:44.287Z,9.50
2018-05-02T08:43:45.048Z,6.20
2018-05-02T08:44:45.679Z,5.00
2018-05-02T08:45:46.318Z,7.30
2018-05-02T08:46:46.908Z,6.00
2018-05-02T08:47:47.515Z,5.30
2018-05-02T08:48:48.112Z,4.40
2018-05-02T08:50:50.217Z,4.80
2018-05-02T08:51:50.986Z,4.50
2018-05-02T08:52:51.591Z,4.90
2018-05-02T08:53:52.163Z,6.60
2018-05-02T08:54:52.780Z,4.70
2018-05-02T08:55:53.433Z,5.60
2018-05-02T08:56:54.047Z,5.00
2018-05-02T08:57:54.685Z,4.90
2018-05-02T08:58:55.249Z,4.10
2018-05-02T08:59:55.945Z,8.00
2018-05-02T09:00:56.594Z,6.10
2018-05-02T09:01:57.188Z,5.70
2018-05-02T09:02:57.796Z,4.80
2018-05-02T09:03:58.368Z,5.40
2018-05-02T09:04:58.946Z,6.10
2018-05-02T09:05:59.613Z,8.90
2018-05-02T09:07:00.221Z,7.30
2018-05-02T09:08:01.009Z,6.00
2018-05-02T09:09:01.632Z,4.20
2018-05-02T09:10:02.334Z,4.20
2018-05-02T09:11:02.948Z,6.00
2018-05-02T09:12:03.594Z,4.80
2018-05-02T09:13:04.198Z,5.10
2018-05-02T09:14:04.854Z,4.50
2018-05-02T09:15:05.522Z,4.60
2018-05-02T09:16:06.100Z,4.60
2018-05-02T09:17:06.707Z,4.00
2018-05-02T09:18:07.344Z,3.90
2018-05-02T09:19:07.967Z,3.80
2018-05-02T09:20:09.054Z,4.10
2018-05-02T09:21:09.742Z,3.80
2018-05-02T09:22:10.312Z,3.90
2018-05-02T09:23:11.128Z,3.80
2018-05-02T09:24:11.686Z,4.10
2018-05-02T09:25:12.280Z,4.10
2018-05-02T09:26:12.849Z,3.90
2018-05-02T09:27:13.498Z,4.00
2018-05-02T09:28:15.104Z,4.10
2018-05-02T09:29:15.672Z,4.00
2018-05-02T09:30:16.252Z,4.00
2018-05-02T09:31:16.853Z,3.90
2018-05-02T09:32:17.508Z,3.80
2018-05-02T09:33:18.076Z,3.70
2018-05-02T09:34:18.621Z,3.80
2018-05-02T09:35:19.200Z,3.90
2018-05-02T09:36:19.784Z,4.10
2018-05-02T09:37:20.399Z,3.90
2018-05-02T09:38:21.111Z,3.80
2018-05-02T09:39:21.720Z,3.60
2018-05-02T09:40:22.338Z,3.90
2018-05-02T09:41:22.917Z,3.60
2018-05-02T09:42:23.495Z,3.60
2018-05-02T09:43:24.064Z,4.00
2018-05-02T09:44:24.665Z,3.90
2018-05-02T09:45:25.283Z,4.00
2018-05-02T09:46:25.871Z,3.60
2018-05-02T09:47:26.489Z,3.80
2018-05-02T09:48:27.079Z,4.00
2018-05-02T09:49:27.650Z,4.00
2018-05-02T09:50:28.210Z,3.60
2018-05-02T09:51:28.802Z,3.90
2018-05-02T09:52:29.443Z,3.90
2018-05-02T09:53:30.147Z,3.70
2018-05-02T09:54:30.721Z,3.50
2018-05-02T09:55:31.338Z,3.80
2018-05-02T09:56:31.911Z,3.70
2018-05-02T09:57:32.514Z,3.50
2018-05-02T09:58:33.158Z,3.90
2018-05-02T09:59:33.726Z,3.90
2018-05-02T10:00:34.325Z,3.80
2018-05-02T10:02:35.159Z,3.70
2018-05-02T10:03:35.792Z,4.00
2018-05-02T10:04:36.374Z,3.50
2018-05-02T10:05:37.023Z,3.40
2018-05-02T10:07:37.915Z,3.60
2018-05-02T10:08:38.494Z,3.70
2018-05-02T10:09:39.117Z,3.70
2018-05-02T10:10:39.696Z,4.00
2018-05-02T10:11:40.256Z,4.10
2018-05-02T10:12:40.887Z,4.00
2018-05-02T10:13:41.567Z,3.90
2018-05-02T10:14:42.156Z,3.90
2018-05-02T10:15:42.753Z,4.30
2018-05-02T10:16:43.352Z,4.40
2018-05-02T10:17:43.916Z,3.90
2018-05-02T10:18:44.489Z,4.20
2018-05-02T10:19:45.065Z,4.00
2018-05-02T10:21:35.437Z,3.40
2018-05-02T10:23:59.886Z,4.10
2018-05-02T10:26:02.585Z,3.60
2018-05-02T10:27:14.489Z,4.20
2018-05-02T10:29:15.367Z,4.10
2018-05-02T10:31:03.700Z,3.80
2018-05-02T10:33:02.549Z,4.70
2018-05-02T10:34:46.075Z,5.10
2018-05-02T10:36:38.971Z,4.30
2018-05-02T10:37:39.573Z,4.10
2018-05-02T10:38:40.159Z,4.50
2018-05-02T10:39:40.764Z,4.50
2018-05-02T10:40:41.365Z,4.60
2018-05-02T10:41:41.957Z,4.30
2018-05-02T10:42:42.509Z,4.30
2018-05-02T10:43:43.145Z,4.00
2018-05-02T10:45:11.673Z,4.00
2018-05-02T10:46:47.290Z,3.10
2018-05-02T10:48:39.287Z,4.40
2018-05-02T10:50:37.064Z,3.80
2018-05-02T10:52:31.584Z,5.50
2018-05-02T10:53:32.189Z,4.30
2018-05-02T10:54:32.793Z,4.40
2018-05-02T10:55:33.483Z,4.40
2018-05-02T10:56:35.201Z,3.90
2018-05-02T10:57:39.839Z,4.50
2018-05-02T11:00:11.109Z,4.00
2018-05-02T11:01:11.766Z,4.00
2018-05-02T11:02:42.980Z,4.40
2018-05-02T11:03:05.610Z,3.90
2018-05-02T11:04:06.282Z,4.00
2018-05-02T11:05:06.890Z,3.90
2018-05-02T11:06:07.463Z,4.30
2018-05-02T11:07:08.101Z,4.00
2018-05-02T11:08:08.691Z,3.60
2018-05-02T11:09:09.265Z,3.90
2018-05-02T11:10:09.857Z,3.90
2018-05-02T11:11:10.457Z,3.80
2018-05-02T11:12:11.037Z,3.90
2018-05-02T11:13:11.659Z,3.70
2018-05-02T11:14:12.257Z,4.10
2018-05-02T11:15:12.848Z,3.80
2018-05-02T11:16:13.414Z,3.70
2018-05-02T11:17:14.073Z,3.80
2018-05-02T11:18:14.644Z,3.90
2018-05-02T11:19:15.223Z,3.90
2018-05-02T11:21:16.206Z,3.70
2018-05-02T11:22:16.805Z,3.70
2018-05-02T11:23:17.373Z,3.90
2018-05-02T11:24:18.021Z,4.20
2018-05-02T11:25:18.877Z,3.70
2018-05-02T11:26:19.492Z,3.50
2018-05-02T11:28:20.395Z,3.50
2018-05-02T11:29:21.020Z,3.80
2018-05-02T11:30:21.645Z,3.60
2018-05-02T11:31:22.238Z,4.00
2018-05-02T11:32:22.825Z,4.00
2018-05-02T11:33:23.426Z,4.10
2018-05-02T11:34:24.039Z,3.80
2018-05-02T11:35:24.635Z,4.10
2018-05-02T11:36:25.207Z,3.70
2018-05-02T11:37:25.777Z,3.90
2018-05-02T11:38:26.367Z,4.10
2018-05-02T11:39:26.941Z,3.90
2018-05-02T11:40:27.577Z,4.00
2018-05-02T11:41:28.163Z,3.50
2018-05-02T11:42:28.797Z,3.50
2018-05-02T11:43:29.411Z,4.10
2018-05-02T11:44:29.982Z,3.90
2018-05-02T11:45:30.534Z,3.30
2018-05-02T11:47:31.391Z,3.60
2018-05-02T11:48:31.991Z,3.60
2018-05-02T11:49:32.587Z,3.60
2018-05-02T11:50:33.153Z,3.70
2018-05-02T11:51:33.731Z,3.20
2018-05-02T11:52:34.393Z,3.30
2018-05-02T11:53:34.967Z,3.40
2018-05-02T11:54:35.576Z,3.30
2018-05-02T11:55:36.172Z,3.20
2018-05-02T11:56:36.804Z,3.30
2018-05-02T11:57:37.430Z,3.00
2018-05-02T11:59:38.307Z,2.90
2018-05-02T12:00:38.873Z,3.20
2018-05-02T12:01:39.467Z,3.30
2018-05-02T12:02:40.126Z,3.50
2018-05-02T12:04:41.745Z,3.40
2018-05-02T12:05:42.322Z,3.20
2018-05-02T12:06:42.916Z,3.20
2018-05-02T12:07:43.492Z,3.60
2018-05-02T12:08:44.054Z,3.80
2018-05-02T12:10:44.963Z,3.40
2018-05-02T12:11:45.562Z,3.30
2018-05-02T12:12:46.120Z,3.40
2018-05-02T12:13:46.719Z,3.00
2018-05-02T12:14:47.297Z,3.40
2018-05-02T12:16:48.175Z,3.10
2018-05-02T12:17:48.779Z,2.90
2018-05-02T12:18:49.345Z,2.90
2018-05-02T12:19:49.996Z,3.10
2018-05-02T12:20:50.638Z,3.00
2018-05-02T12:21:51.285Z,2.80
2018-05-02T12:23:52.141Z,2.90
2018-05-02T12:24:52.692Z,2.70
2018-05-02T12:25:53.393Z,3.10
2018-05-02T12:26:54.094Z,3.10
2018-05-02T12:27:54.729Z,3.00
2018-05-02T12:28:55.329Z,3.00
2018-05-02T12:29:55.903Z,3.00
2018-05-02T12:30:56.523Z,2.90
2018-05-02T12:31:57.137Z,2.90
2018-05-02T12:32:57.745Z,2.80
2018-05-02T12:33:58.337Z,2.90
2018-05-02T12:34:58.905Z,2.70
2018-05-02T12:36:00.213Z,2.90
2018-05-02T12:37:00.801Z,3.10
2018-05-02T12:38:01.455Z,2.80
2018-05-02T12:39:02.037Z,2.80
2018-05-02T12:40:02.605Z,2.70
2018-05-02T12:41:03.231Z,3.10
2018-05-02T12:42:03.852Z,3.10
2018-05-02T12:43:04.425Z,3.20
2018-05-02T12:45:05.289Z,2.60
2018-05-02T12:46:05.885Z,2.90
2018-05-02T12:47:06.465Z,2.70
2018-05-02T12:48:07.052Z,2.80
2018-05-02T12:49:07.661Z,2.80
2018-05-02T12:50:08.259Z,3.30
2018-05-02T12:51:08.918Z,2.90
2018-05-02T12:52:09.498Z,2.70
2018-05-02T12:53:10.055Z,2.70
2018-05-02T12:54:10.660Z,3.00
2018-05-02T12:55:11.227Z,3.00
2018-05-02T12:56:11.983Z,3.20
2018-05-02T12:57:12.504Z,3.00
2018-05-02T12:58:13.080Z,2.90
2018-05-02T12:59:13.645Z,2.90
2018-05-02T13:00:15.357Z,3.10
2018-05-02T13:01:15.948Z,3.20
2018-05-02T13:02:16.558Z,2.80
2018-05-02T13:03:17.140Z,2.90
2018-05-02T13:05:18.063Z,2.60
2018-05-02T13:06:18.655Z,2.60
2018-05-02T13:07:19.239Z,3.00
2018-05-02T13:09:20.214Z,2.80
2018-05-02T13:10:20.823Z,2.70
2018-05-02T13:11:21.386Z,2.90
2018-05-02T13:12:21.968Z,3.00
2018-05-02T13:14:22.849Z,2.80
2018-05-02T13:15:23.516Z,2.90
2018-05-02T13:16:24.067Z,2.60
2018-05-02T13:17:24.650Z,2.90
2018-05-02T13:18:25.276Z,2.90
2018-05-02T13:19:25.850Z,3.00
2018-05-02T13:20:26.523Z,2.80
2018-05-02T13:21:27.096Z,2.90
2018-05-02T13:22:27.802Z,3.10
2018-05-02T13:23:28.401Z,2.80
2018-05-02T13:24:29.079Z,3.00
2018-05-02T13:25:29.698Z,3.00
2018-05-02T13:26:30.279Z,2.70
2018-05-02T13:27:30.866Z,2.90
2018-05-02T13:28:31.428Z,2.80
2018-05-02T13:29:32.022Z,2.90
2018-05-02T13:30:32.597Z,2.60
2018-05-02T13:31:33.204Z,2.90
2018-05-02T13:32:33.830Z,2.70
2018-05-02T13:33:34.432Z,2.70
2018-05-02T13:34:35.023Z,2.70
2018-05-02T13:35:35.614Z,2.30
2018-05-02T13:36:36.190Z,2.50
2018-05-02T13:37:36.778Z,2.40
2018-05-02T13:38:37.409Z,2.20
2018-05-02T13:39:37.993Z,2.60
2018-05-02T13:40:38.626Z,2.90
2018-05-02T13:41:39.240Z,2.90
2018-05-02T13:42:39.831Z,2.60
2018-05-02T13:44:40.737Z,3.00
2018-05-02T13:45:41.337Z,2.70
2018-05-02T13:46:41.907Z,2.70
2018-05-02T13:47:42.476Z,2.50
2018-05-02T13:48:43.344Z,2.50
2018-05-02T13:49:43.941Z,2.50
2018-05-02T13:50:44.585Z,2.50
2018-05-02T13:51:45.194Z,2.60
2018-05-02T13:52:45.770Z,2.70
2018-05-02T13:53:46.332Z,2.80
2018-05-02T13:54:46.901Z,2.50
2018-05-02T13:55:47.528Z,2.80
2018-05-02T13:56:48.104Z,2.50
2018-05-02T13:57:48.682Z,2.60
2018-05-02T13:58:49.459Z,2.90
2018-05-02T13:59:50.074Z,2.60
2018-05-02T14:00:50.843Z,2.50
2018-05-02T14:01:51.477Z,2.30
2018-05-02T14:02:52.072Z,2.40
2018-05-02T14:03:52.677Z,2.10
2018-05-02T14:04:53.256Z,2.00
2018-05-02T14:05:53.832Z,2.20
2018-05-02T14:06:54.412Z,2.10
2018-05-02T14:07:55.073Z,2.00
2018-05-02T14:08:56.184Z,2.00
2018-05-02T14:09:56.790Z,1.90
2018-05-02T14:10:57.370Z,1.80
2018-05-02T14:11:57.965Z,2.10
2018-05-02T14:12:58.524Z,2.10
2018-05-02T14:13:59.149Z,1.90
2018-05-02T14:14:59.737Z,2.10
2018-05-02T14:16:00.336Z,1.90
2018-05-02T14:17:01.019Z,1.90
2018-05-02T14:18:01.626Z,2.00
2018-05-02T14:19:02.314Z,2.00
2018-05-02T14:20:02.930Z,2.20
2018-05-02T14:21:03.566Z,2.10
2018-05-02T14:22:04.204Z,1.90
2018-05-02T14:23:04.764Z,2.30
2018-05-02T14:24:05.355Z,2.00
2018-05-02T14:25:05.931Z,2.10
2018-05-02T14:26:06.565Z,2.10
2018-05-02T14:27:07.125Z,1.90
2018-05-02T14:28:07.759Z,2.10
2018-05-02T14:29:09.675Z,2.10
2018-05-02T14:30:10.322Z,1.80
2018-05-02T14:31:10.958Z,2.00
2018-05-02T14:33:11.852Z,2.10
2018-05-02T14:34:12.419Z,1.90
2018-05-02T14:35:12.995Z,2.00
2018-05-02T14:36:13.595Z,2.00
2018-05-02T14:37:14.262Z,2.10
2018-05-02T14:38:15.023Z,1.90
2018-05-02T14:39:15.676Z,2.00
2018-05-02T14:40:16.277Z,1.90
2018-05-02T14:41:16.890Z,2.10
2018-05-02T14:42:17.572Z,2.30
2018-05-02T14:43:18.194Z,2.10
2018-05-02T14:44:18.783Z,2.00
2018-05-02T14:45:19.536Z,1.90
2018-05-02T14:46:20.241Z,2.20
2018-05-02T14:47:20.930Z,2.10
2018-05-02T14:48:21.588Z,2.20
2018-05-02T14:49:22.196Z,2.00
2018-05-02T14:50:22.758Z,2.00
2018-05-02T14:51:23.519Z,2.30
2018-05-02T14:52:24.105Z,1.90
2018-05-02T14:53:24.678Z,2.30
2018-05-02T14:54:25.264Z,2.00
2018-05-02T14:55:26.434Z,2.20
2018-05-02T14:56:27.063Z,2.60
2018-05-02T14:57:27.638Z,2.60
2018-05-02T14:58:28.372Z,2.70
2018-05-02T14:59:29.066Z,2.70
2018-05-02T15:00:29.664Z,2.50
2018-05-02T15:01:30.329Z,2.60
2018-05-02T15:02:30.945Z,2.90
2018-05-02T15:03:31.581Z,2.80
2018-05-02T15:04:32.173Z,2.70
2018-05-02T15:05:32.775Z,2.80
2018-05-02T15:06:33.379Z,2.70
2018-05-02T15:07:33.947Z,3.00
2018-05-02T15:08:34.548Z,3.10
2018-05-02T15:09:35.168Z,3.10
2018-05-02T15:10:35.821Z,3.10
2018-05-02T15:11:36.419Z,2.80
2018-05-02T15:12:36.985Z,2.90
2018-05-02T15:13:37.601Z,2.80
2018-05-02T15:14:38.202Z,3.30
2018-05-02T15:15:38.850Z,2.80
2018-05-02T15:16:39.482Z,2.60
2018-05-02T15:17:40.205Z,3.00
2018-05-02T15:18:40.806Z,3.00
2018-05-02T15:19:41.382Z,2.80
2018-05-02T15:20:41.974Z,3.10
2018-05-02T15:21:42.581Z,3.50
2018-05-02T15:22:43.169Z,3.20
2018-05-02T15:23:43.759Z,3.30
2018-05-02T15:24:44.326Z,3.30
2018-05-02T15:25:44.958Z,3.40
2018-05-02T15:26:45.553Z,3.10
2018-05-02T15:27:46.192Z,3.40
2018-05-02T15:28:46.874Z,3.50
2018-05-02T15:29:47.435Z,3.50
2018-05-02T15:30:47.997Z,3.50
2018-05-02T15:31:48.618Z,3.30
2018-05-02T15:32:49.311Z,3.30
2018-05-02T15:33:49.926Z,3.10
2018-05-02T15:34:50.644Z,3.50
2018-05-02T15:35:51.297Z,3.40
2018-05-02T15:36:51.860Z,3.60
2018-05-02T15:37:52.509Z,3.60
2018-05-02T15:38:53.093Z,3.60
2018-05-02T15:39:53.679Z,4.00
2018-05-02T15:40:54.321Z,3.50
2018-05-02T15:41:54.913Z,3.50
2018-05-02T15:42:55.531Z,3.50
2018-05-02T15:43:56.107Z,3.40
2018-05-02T15:44:56.765Z,3.60
2018-05-02T15:45:57.380Z,3.40
2018-05-02T15:47:58.240Z,3.70
2018-05-02T15:48:58.842Z,3.40
2018-05-02T15:50:59.720Z,3.50
2018-05-02T15:52:00.353Z,3.60
2018-05-02T15:53:01.022Z,3.60
2018-05-02T15:54:01.599Z,3.80
2018-05-02T15:55:02.220Z,4.00
2018-05-02T15:56:02.802Z,4.00
2018-05-02T15:57:03.356Z,4.00
2018-05-02T15:59:04.278Z,3.70
2018-05-02T16:00:04.830Z,3.60
2018-05-02T16:01:05.485Z,3.60
2018-05-02T16:02:06.093Z,3.80
2018-05-02T16:03:06.673Z,3.70
2018-05-02T16:04:07.285Z,3.70
2018-05-02T16:05:08.802Z,3.70
2018-05-02T16:06:09.445Z,3.70
2018-05-02T16:07:10.011Z,3.20
2018-05-02T16:08:10.647Z,3.30
2018-05-02T16:09:11.228Z,3.40
2018-05-02T16:10:11.796Z,3.50
2018-05-02T16:11:12.384Z,3.50
2018-05-02T16:12:13.034Z,3.60
2018-05-02T16:13:13.601Z,3.30
2018-05-02T16:14:14.214Z,3.60
2018-05-02T16:16:15.789Z,3.50
2018-05-02T16:17:16.380Z,3.60
2018-05-02T16:18:16.971Z,3.60
2018-05-02T16:19:17.584Z,3.50
2018-05-02T16:20:18.152Z,3.40
2018-05-02T16:21:18.766Z,3.30
2018-05-02T16:22:19.334Z,3.30
2018-05-02T16:23:19.981Z,3.40
2018-05-02T16:24:20.575Z,2.90
2018-05-02T16:25:21.151Z,3.10
2018-05-02T16:26:21.754Z,3.50
2018-05-02T16:27:22.347Z,3.50
2018-05-02T16:28:22.995Z,3.40
2018-05-02T16:29:23.553Z,3.70
2018-05-02T16:30:24.141Z,3.40
2018-05-02T16:31:24.723Z,3.50
2018-05-02T16:32:25.295Z,3.40
2018-05-02T16:33:25.904Z,3.10
2018-05-02T16:34:26.483Z,3.30
2018-05-02T16:35:27.066Z,3.20
2018-05-02T16:36:27.623Z,3.30
2018-05-02T16:37:28.263Z,3.20
2018-05-02T16:38:28.864Z,3.30
2018-05-02T16:39:29.460Z,3.10
2018-05-02T16:40:30.083Z,3.10
2018-05-02T16:41:30.772Z,3.10
2018-05-02T16:42:31.383Z,3.00
2018-05-02T16:43:32.020Z,3.00
2018-05-02T16:44:32.668Z,3.30
2018-05-02T16:45:33.337Z,3.30
2018-05-02T16:46:33.932Z,3.20
2018-05-02T16:47:34.553Z,2.90
2018-05-02T16:48:35.173Z,3.20
2018-05-02T16:49:35.758Z,3.10
2018-05-02T16:50:36.462Z,3.10
2018-05-02T16:51:37.039Z,2.90
2018-05-02T16:52:37.660Z,3.00
2018-05-02T16:53:38.309Z,3.30
2018-05-02T16:54:38.883Z,2.90
2018-05-02T16:55:39.471Z,2.90
2018-05-02T16:56:40.061Z,2.90
2018-05-02T16:57:41.277Z,2.90
2018-05-02T16:58:41.879Z,3.00
2018-05-02T16:59:42.482Z,2.90
2018-05-02T17:00:43.045Z,2.60
2018-05-02T17:02:43.909Z,3.00
2018-05-02T17:03:44.518Z,2.80
2018-05-02T17:04:45.090Z,2.80
2018-05-02T17:05:46.434Z,3.00
2018-05-02T17:06:47.142Z,2.90
2018-05-02T17:07:47.741Z,3.30
2018-05-02T17:08:48.340Z,2.80
2018-05-02T17:09:48.961Z,3.20
2018-05-02T17:10:50.257Z,3.10
2018-05-02T17:11:50.897Z,2.60
2018-05-02T17:12:52.093Z,2.90
2018-05-02T17:13:52.689Z,3.00
2018-05-02T17:14:53.266Z,3.10
